Time;durP1;ratioP1;P1;durP2;ratioP2;P2;SDS_P1;SDS_P2;PMS_P1;PMS_P2;Temp;Humidity;BMP_temperature;BMP_pressure;BME280_temperature;BME280_humidity;BME280_pressure;Samples;Min_cycle;Max_cycle;Signal;HPM_P1;HPM_P2
2022/03/26 00:00:25;;;;;;;12.07;5.00;;;;;;;9.68;57.73;103299.28;5095810;27;127474;-36
2022/03/26 00:02:51;;;;;;;20.38;6.22;;;;;;;9.56;57.83;103287.75;5078286;27;100834;-36
2022/03/26 00:05:17;;;;;;;11.95;5.30;;;;;;;9.56;57.34;103301.28;5096379;27;96627;-37
2022/03/26 00:07:43;;;;;;;15.27;5.65;;;;;;;9.49;58.54;103299.63;5074318;27;96879;-37
2022/03/26 00:10:09;;;;;;;16.17;5.63;;;;;;;9.34;57.93;103284.56;5073984;27;100777;-36
2022/03/26 00:12:34;;;;;;;17.02;5.35;;;;;;;9.33;57.80;103287.28;5075530;27;99127;-36
2022/03/26 00:14:59;;;;;;;11.80;5.63;;;;;;;9.27;57.62;103285.56;5076155;27;96558;-36
2022/03/26 00:17:25;;;;;;;21.17;5.82;;;;;;;9.16;58.93;103282.16;5076167;27;96801;-36
2022/03/26 00:19:51;;;;;;;15.32;6.25;;;;;;;9.14;58.52;103287.56;5075428;27;97916;-36
2022/03/26 00:22:17;;;;;;;16.60;5.13;;;;;;;9.10;57.91;103293.03;5074215;27;100832;-36
2022/03/26 00:24:42;;;;;;;12.63;5.18;;;;;;;9.03;58.77;103284.13;5076051;27;96441;-36
2022/03/26 00:27:07;;;;;;;10.80;4.60;;;;;;;9.02;59.05;103279.66;5074930;27;96802;-36
2022/03/26 00:29:33;;;;;;;13.82;5.15;;;;;;;9.03;57.99;103285.94;5075054;27;127296;-36
2022/03/26 00:31:58;;;;;;;14.82;5.80;;;;;;;8.96;59.33;103290.56;5074771;27;124008;-37
2022/03/26 00:34:23;;;;;;;12.13;5.32;;;;;;;8.91;59.14;103281.63;5074508;27;112036;-37
2022/03/26 00:36:49;;;;;;;11.73;4.75;;;;;;;8.96;59.04;103292.38;5075237;27;101987;-36
2022/03/26 00:39:14;;;;;;;13.70;4.97;;;;;;;8.86;58.39;103275.41;5075101;27;99475;-37
2022/03/26 00:41:39;;;;;;;12.38;5.40;;;;;;;8.87;59.09;103286.19;5075573;27;97250;-36
2022/03/26 00:44:05;;;;;;;15.75;5.53;;;;;;;8.88;58.08;103290.69;5074752;27;117226;-36
2022/03/26 00:46:30;;;;;;;13.88;5.13;;;;;;;8.91;59.26;103292.44;5075590;27;96575;-37
2022/03/26 00:48:59;;;;;;;13.57;5.05;;;;;;;8.87;58.45;103286.19;5075210;27;97986;-36
2022/03/26 00:51:25;;;;;;;12.88;5.18;;;;;;;8.82;58.83;103282.69;5074184;27;100916;-37
2022/03/26 00:53:51;;;;;;;13.75;5.50;;;;;;;8.82;58.77;103284.47;5073973;27;97191;-37
2022/03/26 00:56:17;;;;;;;12.05;4.72;;;;;;;8.89;58.21;103291.56;5075541;27;96851;-37
2022/03/26 00:58:42;;;;;;;17.52;4.78;;;;;;;8.89;58.93;103292.47;5074758;27;97241;-36
2022/03/26 01:01:07;;;;;;;12.52;4.75;;;;;;;8.88;58.52;103295.19;5075051;27;102400;-36
2022/03/26 01:03:35;;;;;;;13.18;5.28;;;;;;;8.82;59.18;103295.28;5073835;27;118241;-37
2022/03/26 01:06:02;;;;;;;11.70;5.80;;;;;;;8.78;58.11;103290.84;5074710;27;108951;-37
2022/03/26 01:08:27;;;;;;;9.00;4.20;;;;;;;8.70;58.96;103278.34;5091296;27;98219;-36
2022/03/26 01:10:53;;;;;;;14.38;5.57;;;;;;;8.80;59.41;103298.03;5099191;27;99036;-36
2022/03/26 01:13:18;;;;;;;15.45;5.30;;;;;;;8.76;59.49;103292.69;5099352;27;96487;-37
2022/03/26 01:15:43;;;;;;;13.80;6.15;;;;;;;8.82;59.02;103297.97;5099340;27;108799;-36
2022/03/26 01:18:09;;;;;;;13.93;5.43;;;;;;;8.68;59.06;103276.59;5097800;27;126503;-36
2022/03/26 01:20:35;;;;;;;13.70;5.78;;;;;;;8.75;59.44;103288.19;5080357;27;100932;-37
2022/03/26 01:23:01;;;;;;;12.75;5.97;;;;;;;8.73;58.93;103287.34;5099119;27;96480;-36
2022/03/26 01:25:26;;;;;;;10.75;4.90;;;;;;;8.79;58.59;103301.63;5098934;27;109461;-36
2022/03/26 01:27:52;;;;;;;12.65;5.45;;;;;;;8.72;59.42;103291.81;5098408;27;120183;-37
2022/03/26 01:30:17;;;;;;;15.65;5.53;;;;;;;8.63;58.68;103292.88;5099055;27;97830;-37
2022/03/26 01:32:46;;;;;;;13.50;5.55;;;;;;;8.68;59.13;103298.19;5099022;27;96752;-37
2022/03/26 01:35:12;;;;;;;19.30;7.00;;;;;;;8.60;59.11;103287.47;5080511;27;96791;-36
2022/03/26 01:37:38;;;;;;;11.60;5.10;;;;;;;8.58;59.38;103283.00;5098986;27;97431;-36
2022/03/26 01:40:05;;;;;;;12.45;5.25;;;;;;;8.61;59.14;103288.41;5099200;27;97761;-36
2022/03/26 01:42:30;;;;;;;13.38;5.97;;;;;;;8.54;59.52;103289.41;5080355;27;96513;-36
2022/03/26 01:44:56;;;;;;;10.88;4.68;;;;;;;8.58;59.81;103292.03;5099005;27;96815;-36
2022/03/26 01:47:21;;;;;;;20.30;6.40;;;;;;;8.61;60.64;103299.22;5098022;27;107604;-36
2022/03/26 01:49:47;;;;;;;14.20;5.63;;;;;;;8.55;59.75;103288.47;5098454;27;97848;-37
2022/03/26 01:52:12;;;;;;;18.17;6.75;;;;;;;8.55;59.59;103294.75;5099006;27;96455;-36
2022/03/26 01:54:39;;;;;;;14.70;5.93;;;;;;;8.53;59.62;103284.88;5098426;27;108334;-37
2022/03/26 01:57:04;;;;;;;19.55;7.75;;;;;;;8.52;60.60;103288.53;5080029;27;100804;-37
2022/03/26 01:59:30;;;;;;;13.82;6.10;;;;;;;8.45;59.95;103283.19;5097304;27;123915;-36
2022/03/26 02:01:56;;;;;;;15.80;6.28;;;;;;;8.45;59.87;103279.59;5098847;27;96669;-36
2022/03/26 02:04:21;;;;;;;15.20;6.47;;;;;;;8.44;60.28;103281.41;5098875;27;96810;-36
2022/03/26 02:06:47;;;;;;;20.70;5.93;;;;;;;8.44;60.93;103288.63;5098837;27;97268;-36
2022/03/26 02:09:15;;;;;;;12.90;5.95;;;;;;;8.43;59.87;103287.72;5079535;27;100860;-36
2022/03/26 02:11:45;;;;;;;17.77;6.10;;;;;;;8.38;59.65;103281.44;5079427;27;96566;-36
2022/03/26 02:14:12;;;;;;;16.17;5.90;;;;;;;8.34;60.81;103292.31;5079943;27;96805;-36
2022/03/26 02:16:40;;;;;;;20.05;7.10;;;;;;;8.32;59.35;103276.16;5079556;27;100719;-37
2022/03/26 02:19:07;;;;;;;12.88;6.03;;;;;;;8.35;60.18;103276.09;5079050;27;100825;-37
2022/03/26 02:21:37;;;;;;;15.10;5.97;;;;;;;8.38;61.19;103288.66;5079907;27;96614;-36
2022/03/26 02:24:04;;;;;;;13.93;5.82;;;;;;;8.33;61.03;103277.91;5098406;27;96648;-37
2022/03/26 02:26:29;;;;;;;15.75;5.95;;;;;;;8.30;59.92;103278.84;5079277;27;101449;-37
2022/03/26 02:28:57;;;;;;;17.42;7.03;;;;;;;8.29;60.38;103281.56;5098450;27;97815;-37
2022/03/26 02:31:23;;;;;;;15.38;6.28;;;;;;;8.27;60.96;103272.59;5079689;27;96689;-37
2022/03/26 02:33:49;;;;;;;17.45;6.47;;;;;;;8.29;61.47;103279.78;5079616;27;96846;-37
2022/03/26 02:36:14;;;;;;;19.38;6.35;;;;;;;8.25;60.61;103279.84;5078973;27;101104;-37
2022/03/26 02:38:40;;;;;;;19.75;7.20;;;;;;;8.28;61.31;103283.38;5097573;27;99036;-37
2022/03/26 02:41:07;;;;;;;14.15;6.65;;;;;;;8.24;60.33;103292.41;5098233;27;96417;-37
2022/03/26 02:43:33;;;;;;;18.38;6.88;;;;;;;8.26;60.39;103282.50;5079545;27;96809;-37
2022/03/26 02:45:58;;;;;;;22.42;8.02;;;;;;;8.24;61.30;103278.91;5097326;27;98058;-37
2022/03/26 02:48:23;;;;;;;12.20;5.93;;;;;;;8.24;60.94;103272.63;5097852;27;96445;-36
2022/03/26 02:50:50;;;;;;;21.52;6.80;;;;;;;8.18;60.66;103268.22;5098040;27;96460;-37
2022/03/26 02:53:15;;;;;;;16.67;6.72;;;;;;;8.15;61.58;103272.75;5098408;27;96768;-36
2022/03/26 02:55:41;;;;;;;21.63;7.47;;;;;;;8.17;60.80;103277.22;5097697;27;97833;-36
2022/03/26 02:58:08;;;;;;;16.15;6.25;;;;;;;8.15;60.79;103273.66;5097793;27;97881;-37
2022/03/26 03:00:34;;;;;;;16.90;6.43;;;;;;;8.08;61.01;103264.75;5078624;27;96592;-36
2022/03/26 03:03:00;;;;;;;17.20;7.20;;;;;;;8.14;61.82;103277.25;5079122;27;96922;-36
2022/03/26 03:05:26;;;;;;;17.52;6.93;;;;;;;8.08;60.74;103278.22;5097090;27;99245;-36
2022/03/26 03:07:51;;;;;;;17.88;6.45;;;;;;;8.06;61.41;103269.25;5078533;27;100830;-36
2022/03/26 03:10:17;;;;;;;14.70;5.30;;;;;;;8.08;61.61;103278.22;5096857;27;116837;-36
2022/03/26 03:12:44;;;;;;;14.60;5.65;;;;;;;8.00;60.89;103263.03;5078821;27;96867;-36
2022/03/26 03:15:10;;;;;;;15.65;6.18;;;;;;;7.94;61.11;103263.13;5078598;27;100697;-36
2022/03/26 03:17:41;;;;;;;14.38;5.97;;;;;;;7.98;62.23;103270.25;5079063;27;101108;-36
2022/03/26 03:20:08;;;;;;;13.13;6.57;;;;;;;7.90;61.12;103259.56;5078834;27;96618;-36
2022/03/26 03:22:34;;;;;;;13.93;4.97;;;;;;;7.87;60.92;103260.47;5078738;27;96602;-37
2022/03/26 03:24:59;;;;;;;14.70;5.95;;;;;;;7.91;60.97;103268.53;5078087;27;101112;-36
2022/03/26 03:27:47;;;;;;;15.23;6.43;;;;;;;7.95;61.71;103278.38;5097050;27;98108;-36
2022/03/26 03:30:12;;;;;;;14.00;5.78;;;;;;;7.93;61.60;103281.09;5096355;27;96544;-36
2022/03/26 03:32:37;;;;;;;17.30;6.93;;;;;;;7.91;62.18;103277.50;5097241;27;96786;-36
2022/03/26 03:35:05;;;;;;;16.67;6.75;;;;;;;7.85;61.86;103264.13;5096953;27;97481;-36
2022/03/26 03:37:34;;;;;;;14.77;5.90;;;;;;;7.87;61.52;103276.66;5078382;27;100750;-36
2022/03/26 03:40:00;;;;;;;16.25;5.68;;;;;;;7.76;61.75;103258.81;5078325;27;96848;-37
2022/03/26 03:42:25;;;;;;;12.95;6.07;;;;;;;7.77;61.66;103269.59;5097490;27;96811;-36
2022/03/26 03:44:50;;;;;;;12.52;5.88;;;;;;;7.82;61.95;103288.44;5096813;27;98036;-36
2022/03/26 03:47:16;;;;;;;14.52;6.38;;;;;;;7.70;60.90;103270.56;5095917;27;126783;-37
2022/03/26 03:49:41;;;;;;;16.25;6.47;;;;;;;7.76;61.20;103280.41;5096701;27;96729;-36
2022/03/26 03:52:07;;;;;;;13.93;6.55;;;;;;;7.72;62.36;103275.94;5096312;27;114534;-36
2022/03/26 03:54:32;;;;;;;16.55;6.30;;;;;;;7.72;61.44;103284.03;5096201;27;99223;-37
2022/03/26 03:56:57;;;;;;;18.05;6.88;;;;;;;7.72;61.61;103284.91;5095922;27;126494;-36
2022/03/26 03:59:22;;;;;;;17.33;5.93;;;;;;;7.71;61.40;103274.16;5097118;27;97098;-37
2022/03/26 04:01:48;;;;;;;19.10;7.65;;;;;;;7.73;62.19;103289.41;5096062;27;116760;-36
2022/03/26 04:04:13;;;;;;;11.75;6.07;;;;;;;7.73;63.02;103296.63;5096059;27;99339;-37
2022/03/26 04:06:39;;;;;;;15.10;6.60;;;;;;;7.63;61.74;103275.13;5097048;27;97900;-36
2022/03/26 04:09:04;;;;;;;15.23;6.10;;;;;;;7.66;62.76;103291.28;5096253;27;96765;-36
2022/03/26 04:11:29;;;;;;;14.75;6.53;;;;;;;7.63;62.81;103285.03;5095895;27;117028;-36
2022/03/26 04:13:54;;;;;;;18.17;7.55;;;;;;;7.57;63.36;103293.16;5094963;27;127748;-36
2022/03/26 04:16:20;;;;;;;18.65;7.35;;;;;;;7.60;62.83;103298.53;5095278;27;126332;-37
2022/03/26 04:18:46;;;;;;;16.27;6.40;;;;;;;7.54;62.66;103291.41;5096613;27;96714;-37
2022/03/26 04:21:11;;;;;;;17.10;6.88;;;;;;;7.53;62.82;103292.31;5096676;27;96651;-37
2022/03/26 04:23:37;;;;;;;20.63;7.85;;;;;;;7.46;63.17;103287.91;5096030;27;97379;-36
2022/03/26 04:26:02;;;;;;;18.88;7.30;;;;;;;7.47;63.12;103286.97;5096634;27;97210;-37
2022/03/26 04:28:28;;;;;;;25.20;7.80;;;;;;;7.40;63.05;103282.53;5096646;27;96531;-36
2022/03/26 04:30:53;;;;;;;14.50;6.20;;;;;;;7.44;62.90;103292.41;5096576;27;96811;-37
2022/03/26 04:33:19;;;;;;;23.33;8.02;;;;;;;7.37;63.78;103282.59;5096198;27;98043;-36
2022/03/26 04:35:44;;;;;;;19.25;6.65;;;;;;;7.37;62.88;103296.06;5095118;27;126900;-36
2022/03/26 04:38:09;;;;;;;12.02;6.25;;;;;;;7.35;62.85;103295.19;5094537;27;117895;-37
2022/03/26 04:40:34;;;;;;;17.92;7.13;;;;;;;7.23;63.01;103286.28;5095475;27;117188;-36
2022/03/26 04:43:00;;;;;;;22.60;7.00;;;;;;;7.25;64.23;103306.94;5096140;27;97038;-36
2022/03/26 04:45:25;;;;;;;13.10;5.43;;;;;;;7.22;64.27;103302.44;5077086;27;98327;-37
2022/03/26 04:47:50;;;;;;;16.45;7.55;;;;;;;7.14;64.35;103290.84;5096121;27;96441;-37
2022/03/26 04:50:16;;;;;;;16.10;6.30;;;;;;;7.11;63.50;103301.66;5096292;27;96767;-37
2022/03/26 04:52:41;;;;;;;17.85;7.03;;;;;;;7.11;64.27;103307.06;5094712;27;126574;-36
2022/03/26 04:55:08;;;;;;;17.38;7.03;;;;;;;7.08;64.54;103307.97;5077485;27;100669;-37
2022/03/26 04:57:41;;;;;;;15.68;7.45;;;;;;;7.04;64.26;103306.19;5077403;27;96576;-37
2022/03/26 05:00:09;;;;;;;16.15;6.57;;;;;;;7.01;64.56;103306.22;5077334;27;96508;-37
2022/03/26 05:02:36;;;;;;;15.93;6.18;;;;;;;6.95;65.47;103304.44;5095088;27;99342;-37
2022/03/26 05:05:02;;;;;;;12.93;6.13;;;;;;;6.90;65.74;103311.66;5076815;27;100822;-37
2022/03/26 05:07:45;;;;;;;21.33;6.55;;;;;;;6.90;65.72;103316.19;5095582;27;96678;-36
2022/03/26 05:10:17;;;;;;;18.63;6.90;;;;;;;6.88;64.84;103312.59;5096160;27;96866;-36
2022/03/26 05:12:43;;;;;;;;;;;;;;;6.85;66.12;103309.94;5077393;27;101512;-36
2022/03/26 05:15:10;;;;;;;8.38;3.55;;;;;;;6.76;64.98;103305.47;5095686;27;97713;-37
2022/03/26 05:17:36;;;;;;;18.98;7.03;;;;;;;6.73;65.40;103303.69;5077300;27;96594;-36
2022/03/26 05:20:03;;;;;;;17.27;7.22;;;;;;;6.67;65.72;103301.03;5077239;27;96908;-36
2022/03/26 05:22:28;;;;;;;17.25;6.68;;;;;;;6.64;66.14;103297.47;5076849;27;102988;-36
2022/03/26 05:24:54;;;;;;;17.20;8.18;;;;;;;6.63;65.92;103303.78;5095252;27;99137;-36
2022/03/26 05:27:19;;;;;;;10.15;5.10;;;;;;;6.62;66.31;103313.63;5095351;27;96716;-37
2022/03/26 05:29:46;;;;;;;18.70;8.20;;;;;;;6.53;67.05;103309.19;5095506;27;96857;-36
2022/03/26 05:32:12;;;;;;;16.70;7.45;;;;;;;6.52;65.60;103309.19;5095105;27;98204;-37
2022/03/26 05:34:37;;;;;;;11.80;5.22;;;;;;;6.50;66.30;103316.38;5095185;27;97750;-36
2022/03/26 05:37:04;;;;;;;15.88;7.20;;;;;;;6.51;67.14;103320.88;5094835;27;113435;-36
2022/03/26 05:39:30;;;;;;;23.88;7.13;;;;;;;6.48;66.26;103321.75;5076937;27;96766;-37
2022/03/26 05:41:55;;;;;;;17.20;6.57;;;;;;;6.42;66.30;103313.72;5095185;27;97905;-37
2022/03/26 05:44:21;;;;;;;15.35;6.47;;;;;;;6.37;66.56;103300.28;5095411;27;99444;-36
2022/03/26 05:46:46;;;;;;;16.70;7.10;;;;;;;6.37;66.69;103316.44;5095485;27;96768;-37
2022/03/26 05:49:11;;;;;;;17.67;7.22;;;;;;;6.36;66.48;103322.75;5094753;27;102106;-37
2022/03/26 05:51:36;;;;;;;18.55;7.80;;;;;;;6.35;66.24;103318.25;5094218;27;109974;-37
2022/03/26 05:54:02;;;;;;;14.82;6.90;;;;;;;6.41;65.75;103330.78;5096366;27;127416;-37
2022/03/26 05:56:27;;;;;;;16.83;6.60;;;;;;;6.38;65.70;103329.00;5098748;27;96630;-37
2022/03/26 05:58:52;;;;;;;13.85;7.00;;;;;;;6.41;66.81;103337.97;5097923;27;114140;-37
2022/03/26 06:01:18;;;;;;;16.58;7.05;;;;;;;6.29;66.96;103323.66;5098572;27;98004;-36
2022/03/26 06:03:43;;;;;;;17.10;6.97;;;;;;;6.25;67.44;103324.56;5097250;27;118782;-37
2022/03/26 06:06:09;;;;;;;16.35;6.63;;;;;;;6.33;67.79;103338.00;5098500;27;96658;-36
2022/03/26 06:08:34;;;;;;;12.82;5.82;;;;;;;6.32;67.15;103345.19;5098598;27;96705;-36
2022/03/26 06:10:59;;;;;;;17.10;6.38;;;;;;;6.33;67.98;103344.28;5079351;27;116722;-36
2022/03/26 06:13:25;;;;;;;18.38;7.13;;;;;;;6.27;67.88;103330.84;5098127;27;99529;-36
2022/03/26 06:15:50;;;;;;;18.00;7.38;;;;;;;6.30;67.42;103328.13;5098267;27;96747;-37
2022/03/26 06:18:16;;;;;;;16.13;7.95;;;;;;;6.25;67.75;103321.88;5098328;27;96796;-36
2022/03/26 06:20:44;;;;;;;15.18;6.65;;;;;;;6.39;67.51;103335.28;5097242;27;127013;-36
2022/03/26 06:23:10;;;;;;;11.98;5.88;;;;;;;6.38;66.16;103334.38;5079541;27;100778;-36
2022/03/26 06:25:36;;;;;;;18.80;7.60;;;;;;;6.45;65.95;103340.63;5098359;27;96717;-36
2022/03/26 06:28:01;;;;;;;19.55;8.32;;;;;;;6.43;66.27;103336.16;5098374;27;96774;-36
2022/03/26 06:30:26;;;;;;;15.95;7.65;;;;;;;6.45;65.51;103337.94;5098098;27;97913;-36
2022/03/26 06:32:52;;;;;;;16.67;6.60;;;;;;;6.51;65.85;103329.84;5097986;27;98729;-36
2022/03/26 06:35:18;;;;;;;17.88;7.72;;;;;;;6.59;65.70;103329.81;5098357;27;96650;-37
2022/03/26 06:37:43;;;;;;;21.33;8.07;;;;;;;6.65;64.74;103337.88;5098329;27;96743;-36
2022/03/26 06:40:09;;;;;;;24.05;8.98;;;;;;;6.78;64.86;103339.56;5097665;27;97307;-36
2022/03/26 06:42:34;;;;;;;23.17;8.82;;;;;;;6.87;64.89;103341.34;5079126;27;102298;-36
2022/03/26 06:45:00;;;;;;;19.17;7.75;;;;;;;6.91;64.72;103343.13;5097329;27;107387;-36
2022/03/26 06:47:26;;;;;;;19.45;7.57;;;;;;;6.98;65.37;103331.41;5097759;27;96821;-37
2022/03/26 06:49:53;;;;;;;23.40;9.25;;;;;;;7.18;63.73;103338.44;5079111;27;100947;-37
2022/03/26 06:52:18;;;;;;;21.15;8.80;;;;;;;7.33;63.20;103349.09;5097498;27;99146;-36
2022/03/26 06:54:43;;;;;;;22.08;8.35;;;;;;;7.47;63.31;103326.53;5097741;27;97678;-36
2022/03/26 06:57:09;;;;;;;18.60;7.95;;;;;;;7.64;62.25;103338.94;5097586;27;111986;-36
2022/03/26 06:59:34;;;;;;;29.02;8.07;;;;;;;7.83;62.31;103342.38;5096735;27;118275;-36
2022/03/26 07:01:59;;;;;;;19.60;6.55;;;;;;;8.09;62.06;103347.50;5097585;27;97822;-36
2022/03/26 07:04:25;;;;;;;29.75;12.05;;;;;;;8.23;61.80;103336.53;5096084;27;96753;-36
2022/03/26 07:06:50;;;;;;;20.83;8.60;;;;;;;8.42;61.34;103341.78;5097271;27;104504;-36
2022/03/26 07:09:15;;;;;;;21.95;7.88;;;;;;;8.61;60.80;103337.91;5097236;27;97853;-36
2022/03/26 07:11:41;;;;;;;24.67;8.68;;;;;;;8.82;61.04;103342.13;5078796;27;105892;-36
2022/03/26 07:14:06;;;;;;;24.95;8.80;;;;;;;8.97;60.93;103341.00;5097579;27;96658;-36
2022/03/26 07:16:31;;;;;;;26.92;9.48;;;;;;;9.09;60.49;103334.53;5097414;27;96795;-36
2022/03/26 07:18:57;;;;;;;18.00;7.82;;;;;;;9.32;60.02;103350.41;5097526;27;97490;-36
2022/03/26 07:21:22;;;;;;;22.25;7.40;;;;;;;9.51;59.89;103361.78;5097127;27;99108;-36
2022/03/26 07:24:09;;;;;;;19.70;7.82;;;;;;;9.70;59.96;103362.38;5097422;27;96482;-36
2022/03/26 07:26:35;;;;;;;20.27;8.30;;;;;;;9.85;59.60;103358.53;5097318;27;96847;-36
2022/03/26 07:29:00;;;;;;;22.73;8.10;;;;;;;9.94;58.92;103348.41;5095615;27;121345;-36
2022/03/26 07:31:25;;;;;;;18.90;7.82;;;;;;;10.09;59.41;103357.19;5096716;27;111903;-36
2022/03/26 07:33:51;;;;;;;20.42;7.80;;;;;;;10.29;58.36;103363.13;5097203;27;96616;-37
2022/03/26 07:36:16;;;;;;;22.48;8.32;;;;;;;10.38;58.16;103360.22;5097407;27;96805;-36
2022/03/26 07:38:42;;;;;;;22.42;7.22;;;;;;;10.60;57.80;103367.91;5097115;27;98038;-36
2022/03/26 07:41:07;;;;;;;22.35;8.68;;;;;;;10.70;57.48;103357.75;5096806;27;99305;-36
2022/03/26 07:43:34;;;;;;;21.10;7.40;;;;;;;10.89;58.04;103369.09;5078454;27;96777;-36
2022/03/26 07:45:59;;;;;;;23.45;7.43;;;;;;;11.00;57.39;103365.22;5078763;27;96905;-37
2022/03/26 07:48:25;;;;;;;20.35;8.00;;;;;;;11.18;57.08;103369.34;5095816;27;99283;-37
2022/03/26 07:50:50;;;;;;;22.15;8.10;;;;;;;11.26;56.62;103369.16;5095485;27;97327;-37
2022/03/26 07:53:17;;;;;;;20.33;7.03;;;;;;;11.51;56.18;103376.69;5096360;27;96560;-37
2022/03/26 07:55:42;;;;;;;19.23;7.22;;;;;;;11.61;56.07;103375.53;5078552;27;96885;-37
2022/03/26 07:58:08;;;;;;;18.52;6.80;;;;;;;11.66;56.09;103365.44;5096288;27;99590;-37
2022/03/26 08:00:33;;;;;;;25.40;7.90;;;;;;;11.86;55.64;103384.81;5096243;27;111900;-37
2022/03/26 08:02:58;;;;;;;23.67;7.85;;;;;;;12.02;55.39;103389.91;5096813;27;96640;-36
2022/03/26 08:05:24;;;;;;;19.67;6.88;;;;;;;12.12;55.35;103388.69;5096356;27;96851;-36
2022/03/26 08:07:49;;;;;;;24.00;7.47;;;;;;;12.18;55.32;103393.97;5077398;27;99158;-36
2022/03/26 08:10:15;;;;;;;19.02;7.00;;;;;;;12.31;55.01;103397.25;5096027;27;127774;-36
2022/03/26 08:12:40;;;;;;;21.98;6.68;;;;;;;12.42;54.78;103395.13;5096638;27;96500;-36
2022/03/26 08:15:06;;;;;;;22.13;6.38;;;;;;;12.53;54.39;103403.84;5096399;27;96831;-36
2022/03/26 08:17:31;;;;;;;14.90;5.75;;;;;;;12.58;54.11;103392.84;5076711;27;102269;-36
2022/03/26 08:19:57;;;;;;;15.43;6.72;;;;;;;12.69;54.07;103395.25;5096244;27;97636;-37
2022/03/26 08:22:22;;;;;;;22.73;8.13;;;;;;;12.60;54.20;103390.09;5096407;27;96617;-37
2022/03/26 08:24:47;;;;;;;16.98;6.88;;;;;;;12.63;54.38;103400.84;5096708;27;96790;-36
2022/03/26 08:27:13;;;;;;;17.10;7.50;;;;;;;12.70;54.07;103411.53;5096120;27;97892;-37
2022/03/26 08:29:38;;;;;;;18.40;6.63;;;;;;;12.78;53.96;103413.16;5096208;27;97754;-36
2022/03/26 08:32:05;;;;;;;25.48;7.28;;;;;;;12.81;54.06;103415.75;5096029;27;96636;-36
2022/03/26 08:34:31;;;;;;;19.95;7.15;;;;;;;12.77;53.76;103414.94;5061507;27;96936;-36
2022/03/26 08:36:56;;;;;;;19.70;6.82;;;;;;;12.77;54.05;103422.22;5077911;27;97588;-36
2022/03/26 08:39:21;;;;;;;22.50;7.70;;;;;;;12.72;53.83;103417.78;5096011;27;100727;-36
2022/03/26 08:41:47;;;;;;;23.45;8.05;;;;;;;12.68;53.87;103412.50;5095874;27;96425;-36
2022/03/26 08:44:12;;;;;;;23.17;7.95;;;;;;;12.62;54.00;103404.53;5095951;27;97023;-36
2022/03/26 08:46:38;;;;;;;22.92;7.18;;;;;;;12.61;54.00;103425.41;5095493;27;99394;-36
2022/03/26 08:49:03;;;;;;;21.35;7.93;;;;;;;12.48;54.14;103418.50;5077379;27;100905;-36
2022/03/26 08:51:29;;;;;;;25.25;8.13;;;;;;;12.46;54.34;103406.78;5095981;27;96604;-37
2022/03/26 08:53:54;;;;;;;23.13;8.27;;;;;;;12.46;53.92;103417.66;5096156;27;96814;-36
2022/03/26 08:56:20;;;;;;;27.08;9.10;;;;;;;12.39;53.69;103421.47;5095959;27;98007;-36
2022/03/26 08:58:45;;;;;;;28.15;8.95;;;;;;;12.39;53.88;103416.06;5095921;27;99052;-36
2022/03/26 09:01:11;;;;;;;32.28;8.98;;;;;;;12.35;53.93;103414.34;5096035;27;96681;-36
2022/03/26 09:03:37;;;;;;;27.15;8.40;;;;;;;12.34;53.83;103413.47;5077394;27;96960;-36
2022/03/26 09:06:06;;;;;;;28.38;9.23;;;;;;;12.35;53.96;103408.91;5076451;27;100797;-37
2022/03/26 09:08:32;;;;;;;24.08;7.90;;;;;;;12.37;53.60;103418.84;5076366;27;101106;-36
2022/03/26 09:10:58;;;;;;;27.35;8.25;;;;;;;12.31;53.49;103414.44;5077192;27;96722;-36
2022/03/26 09:13:24;;;;;;;25.38;7.97;;;;;;;12.36;53.62;103413.44;5095771;27;96786;-36
2022/03/26 09:15:50;;;;;;;17.75;7.20;;;;;;;12.39;53.51;103408.78;5095575;27;97524;-36
2022/03/26 09:18:15;;;;;;;22.40;8.95;;;;;;;12.40;53.84;103398.81;5076773;27;100709;-36
2022/03/26 09:20:40;;;;;;;22.85;7.22;;;;;;;12.50;54.10;103406.66;5095727;27;96660;-36
2022/03/26 09:23:06;;;;;;;20.58;7.40;;;;;;;12.62;53.72;103407.25;5096422;27;96835;-37
2022/03/26 09:25:34;;;;;;;20.95;7.30;;;;;;;12.79;53.93;103417.63;5076703;27;100827;-37
2022/03/26 09:27:59;;;;;;;22.90;6.40;;;;;;;12.92;53.86;103419.94;5077638;27;100930;-36
2022/03/26 09:30:24;;;;;;;18.20;6.93;;;;;;;13.10;53.41;103423.91;5097974;27;116492;-36
2022/03/26 09:32:50;;;;;;;21.08;7.40;;;;;;;13.25;52.88;103419.84;5099069;27;96841;-36
2022/03/26 09:35:15;;;;;;;16.30;6.15;;;;;;;13.47;52.81;103427.38;5098611;27;107914;-36
2022/03/26 09:37:41;;;;;;;26.30;6.75;;;;;;;13.72;52.73;103425.59;5098237;27;114357;-37
2022/03/26 09:40:08;;;;;;;20.50;6.43;;;;;;;13.94;52.06;103420.34;5080558;27;96728;-36
2022/03/26 09:42:36;;;;;;;13.18;4.85;;;;;;;14.25;51.47;103421.94;5099027;27;96729;-36
2022/03/26 09:45:05;;;;;;;20.58;7.45;;;;;;;14.61;51.21;103421.59;5079929;27;100789;-36
2022/03/26 09:47:31;;;;;;;18.77;6.78;;;;;;;14.89;50.60;103412.38;5080518;27;100839;-37
2022/03/26 09:49:56;;;;;;;13.73;5.68;;;;;;;15.25;50.21;103416.41;5099385;27;96477;-36
2022/03/26 09:52:22;;;;;;;13.45;5.85;;;;;;;15.54;49.34;103418.88;5098972;27;96889;-37
2022/03/26 09:54:48;;;;;;;20.65;6.78;;;;;;;15.84;49.25;103412.16;5079145;27;101024;-36
2022/03/26 09:57:13;;;;;;;16.27;7.05;;;;;;;16.06;48.81;103405.75;5098302;27;118130;-36
2022/03/26 09:59:38;;;;;;;13.98;5.72;;;;;;;16.42;48.38;103422.41;5097949;27;116900;-36
2022/03/26 10:02:04;;;;;;;15.70;5.60;;;;;;;16.72;47.75;103416.47;5098922;27;96781;-36
2022/03/26 10:04:37;;;;;;;16.08;6.38;;;;;;;16.96;47.12;103414.44;5098248;27;97892;-36
2022/03/26 10:07:04;;;;;;;15.80;6.05;;;;;;;17.09;47.53;103414.75;5079891;27;99006;-36
2022/03/26 10:09:35;;;;;;;14.50;6.00;;;;;;;17.22;46.78;103410.47;5079927;27;96574;-36
2022/03/26 10:12:04;;;;;;;14.23;5.47;;;;;;;17.50;46.46;103411.84;5080440;27;96908;-36
2022/03/26 10:14:43;;;;;;;14.68;5.47;;;;;;;17.62;45.39;103413.97;5098120;27;98854;-36
2022/03/26 10:17:30;;;;;;;15.57;6.30;;;;;;;17.81;45.95;103409.34;5079630;27;100785;-36
2022/03/26 10:19:59;;;;;;;16.85;6.60;;;;;;;18.04;46.24;103405.44;5079413;27;96830;-36
2022/03/26 10:22:38;;;;;;;13.55;6.25;;;;;;;18.29;44.61;103412.34;5098342;27;96808;-36
2022/03/26 10:25:13;;;;;;;13.05;6.20;;;;;;;18.41;45.20;103413.56;5079578;27;101368;-36
2022/03/26 10:27:42;;;;;;;15.45;6.03;;;;;;;18.49;44.93;103411.28;5098540;27;97307;-36
2022/03/26 10:30:12;;;;;;;13.77;5.60;;;;;;;18.63;44.47;103399.53;5079656;27;96563;-36
2022/03/26 10:32:49;;;;;;;11.82;5.32;;;;;;;18.82;44.63;103396.72;5098424;27;96654;-36
2022/03/26 10:35:26;;;;;;;14.82;5.63;;;;;;;18.87;43.41;103387.22;5098018;27;99703;-36
2022/03/26 10:37:58;;;;;;;8.27;3.88;;;;;;;18.97;43.33;103400.44;5079659;27;101484;-37
2022/03/26 10:40:35;;;;;;;11.45;4.60;;;;;;;19.08;43.78;103396.13;5079373;27;96669;-36
2022/03/26 10:43:04;;;;;;;11.13;4.03;;;;;;;19.25;43.11;103383.28;5098432;27;96558;-37
2022/03/26 10:45:31;;;;;;;8.57;4.20;;;;;;;19.30;43.11;103393.00;5097034;27;99290;-36
2022/03/26 10:47:58;;;;;;;9.95;4.22;;;;;;;19.28;41.71;103383.09;5097701;27;99345;-37
2022/03/26 10:50:26;;;;;;;8.93;3.45;;;;;;;19.45;41.28;103387.59;5079414;27;96672;-36
2022/03/26 10:52:55;;;;;;;13.63;4.35;;;;;;;19.57;42.08;103386.91;5079539;27;96621;-36
2022/03/26 10:55:22;;;;;;;13.00;5.25;;;;;;;19.77;40.59;103380.22;5078969;27;100725;-36
2022/03/26 10:57:48;;;;;;;14.52;5.03;;;;;;;19.91;41.46;103379.41;5078911;27;100851;-36
2022/03/26 11:00:15;;;;;;;10.98;5.10;;;;;;;20.13;41.00;103384.47;5079288;27;96676;-36
2022/03/26 11:02:43;;;;;;;12.07;5.32;;;;;;;20.31;40.53;103374.19;5062521;27;96847;-36
2022/03/26 11:05:10;;;;;;;16.63;6.93;;;;;;;20.43;41.30;103383.56;5078647;27;100846;-36
2022/03/26 11:07:37;;;;;;;14.55;6.63;;;;;;;20.35;40.28;103393.19;5078328;27;101012;-36
2022/03/26 11:10:08;;;;;;;16.95;7.22;;;;;;;20.43;39.65;103367.03;5097010;27;96727;-36
2022/03/26 11:12:36;;;;;;;15.03;6.37;;;;;;;20.56;40.98;103381.81;5079156;27;97060;-36
2022/03/26 11:15:06;;;;;;;19.23;6.85;;;;;;;20.75;40.04;103378.75;5078710;27;99273;-37